createdAt,value
2023-06-27T00:00:18.549Z,100176.19
2023-06-27T00:05:20.942Z,100190.72
2023-06-27T00:10:22.585Z,100188.28
2023-06-27T00:15:24.534Z,100182.47
2023-06-27T00:20:26.720Z,100191.59
2023-06-27T00:25:28.345Z,100193.34
2023-06-27T00:30:30.021Z,100202.47
2023-06-27T00:35:34.293Z,100222.78
2023-06-27T00:40:35.977Z,100206.69
2023-06-27T00:45:39.845Z,100211.31
2023-06-27T00:50:41.767Z,100199.81
2023-06-27T00:55:43.484Z,100211.50
2023-06-27T01:00:45.098Z,100227.81
2023-06-27T01:05:47.240Z,100223.66
2023-06-27T01:11:16.247Z,100234.09
2023-06-27T01:16:21.006Z,100236.78
2023-06-27T01:21:26.824Z,100230.13
2023-06-27T01:26:31.466Z,100245.19
2023-06-27T01:31:45.146Z,100239.72
2023-06-27T01:37:00.277Z,100236.59
2023-06-27T01:42:09.558Z,100241.38
2023-06-27T01:47:11.552Z,100241.59
2023-06-27T01:52:13.708Z,100245.97
2023-06-27T01:57:15.433Z,100251.22
2023-06-27T02:02:17.162Z,100252.25
2023-06-27T02:07:19.308Z,100250.97
2023-06-27T02:12:21.077Z,100255.16
2023-06-27T02:17:22.717Z,100259.56
2023-06-27T02:22:24.388Z,100263.72
2023-06-27T02:27:26.012Z,100268.91
2023-06-27T02:32:27.647Z,100271.44
2023-06-27T02:37:29.369Z,100274.94
2023-06-27T02:42:31.037Z,100271.78
2023-06-27T02:47:32.782Z,100272.38
2023-06-27T02:52:34.459Z,100280.50
2023-06-27T02:57:36.113Z,100274.66
2023-06-27T03:02:41.646Z,100280.13
2023-06-27T03:07:43.525Z,100287.41
2023-06-27T03:12:45.278Z,100294.06
2023-06-27T03:17:47.044Z,100293.53
2023-06-27T03:22:49.064Z,100299.91
2023-06-27T03:27:52.003Z,100302.63
2023-06-27T03:32:54.805Z,100304.75
2023-06-27T03:37:57.223Z,100313.94
2023-06-27T03:42:59.088Z,100313.69
2023-06-27T03:48:01.098Z,100323.28
2023-06-27T03:53:03.083Z,100332.09
2023-06-27T03:58:04.704Z,100325.13
2023-06-27T04:03:06.453Z,100336.44
2023-06-27T04:08:08.263Z,100327.88
2023-06-27T04:13:10.543Z,100335.06
2023-06-27T04:18:12.281Z,100342.22
2023-06-27T04:23:14.916Z,100343.25
2023-06-27T04:28:17.085Z,100337.66
2023-06-27T04:33:18.755Z,100340.91
2023-06-27T04:38:20.406Z,100345.69
2023-06-27T04:43:22.734Z,100335.78
2023-06-27T04:48:24.345Z,100354.16
2023-06-27T04:53:26.210Z,100357.41
2023-06-27T04:58:27.852Z,100355.38
2023-06-27T05:03:29.444Z,100360.16
2023-06-27T05:08:31.504Z,100353.25
2023-06-27T05:13:33.162Z,100355.09
2023-06-27T05:18:34.810Z,100360.56
2023-06-27T05:23:36.425Z,100358.59
2023-06-27T05:28:38.084Z,100362.56
2023-06-27T05:33:39.697Z,100370.72
2023-06-27T05:38:41.359Z,100371.72
2023-06-27T05:43:42.951Z,100374.88
2023-06-27T05:48:44.562Z,100373.31
2023-06-27T05:53:46.188Z,100382.59
2023-06-27T05:58:47.816Z,100382.00
2023-06-27T06:03:49.684Z,100382.75
2023-06-27T06:08:51.420Z,100389.44
2023-06-27T06:13:53.148Z,100385.53
2023-06-27T06:18:54.927Z,100382.84
2023-06-27T06:23:56.829Z,100385.38
2023-06-27T06:28:58.488Z,100386.41
2023-06-27T06:34:00.096Z,100392.66
2023-06-27T06:39:01.719Z,100394.31
2023-06-27T06:44:03.391Z,100400.59
2023-06-27T06:49:05.084Z,100409.19
2023-06-27T06:54:06.757Z,100404.41
2023-06-27T06:59:08.457Z,100402.28
2023-06-27T07:04:10.201Z,100399.34
2023-06-27T07:09:11.888Z,100406.66
2023-06-27T07:14:13.914Z,100404.59
2023-06-27T07:19:15.537Z,100410.22
2023-06-27T07:24:17.207Z,100404.38
2023-06-27T07:29:19.158Z,100401.84
2023-06-27T07:34:20.832Z,100397.66
2023-06-27T07:44:29.075Z,100398.94
2023-06-27T07:49:32.698Z,100385.97
2023-06-27T07:54:35.245Z,100380.72
2023-06-27T07:59:36.947Z,100373.16
2023-06-27T08:04:39.723Z,100368.34
2023-06-27T08:09:41.431Z,100372.50
2023-06-27T08:14:46.663Z,100370.84
2023-06-27T08:19:48.311Z,100379.59
2023-06-27T08:24:50.301Z,100368.31
2023-06-27T08:29:51.894Z,100364.03
2023-06-27T08:34:53.523Z,100364.81
2023-06-27T08:39:55.160Z,100353.97
2023-06-27T08:44:56.959Z,100350.31
2023-06-27T08:50:04.913Z,100357.28
2023-06-27T08:55:08.307Z,100349.78
2023-06-27T09:00:13.354Z,100357.72
2023-06-27T09:05:16.310Z,100356.81
2023-06-27T09:10:18.882Z,100361.91
2023-06-27T09:15:20.753Z,100356.97
2023-06-27T09:20:22.801Z,100356.66
2023-06-27T09:25:27.409Z,100365.47
2023-06-27T09:30:31.650Z,100371.63
2023-06-27T09:40:38.388Z,100361.03
2023-06-27T09:45:40.330Z,100352.31
2023-06-27T09:50:42.569Z,100352.97
2023-06-27T09:55:47.322Z,100356.41
2023-06-27T10:00:49.342Z,100357.50
2023-06-27T10:06:03.149Z,100350.00
2023-06-27T10:11:12.023Z,100337.59
2023-06-27T10:16:15.386Z,100340.09
2023-06-27T10:21:17.887Z,100335.06
2023-06-27T10:26:20.557Z,100336.78
2023-06-27T10:31:47.383Z,100318.13
2023-06-27T10:36:56.167Z,100320.72
2023-06-27T10:42:09.072Z,100309.94
2023-06-27T10:47:16.522Z,100298.06
2023-06-27T10:52:23.031Z,100293.84
2023-06-27T10:57:24.662Z,100291.81
2023-06-27T11:02:33.836Z,100300.13
2023-06-27T11:07:38.190Z,100295.81
2023-06-27T11:12:40.031Z,100295.06
2023-06-27T11:17:41.715Z,100286.19
2023-06-27T11:22:44.408Z,100300.63
2023-06-27T11:27:46.008Z,100312.22
2023-06-27T11:32:47.698Z,100309.94
2023-06-27T11:37:53.616Z,100299.16
2023-06-27T11:43:02.214Z,100287.78
2023-06-27T11:48:04.192Z,100289.72
2023-06-27T11:53:06.451Z,100280.28
2023-06-27T11:58:08.098Z,100259.06
2023-06-27T12:03:09.811Z,100262.69
2023-06-27T12:08:11.474Z,100261.84
2023-06-27T12:13:13.118Z,100251.09
2023-06-27T12:18:25.407Z,100246.97
2023-06-27T12:23:29.263Z,100246.31
2023-06-27T12:28:32.747Z,100229.16
2023-06-27T12:33:34.448Z,100221.31
2023-06-27T12:38:36.072Z,100206.44
2023-06-27T12:43:37.725Z,100186.91
2023-06-27T12:48:39.360Z,100204.97
2023-06-27T12:53:41.176Z,100183.63
2023-06-27T12:58:46.866Z,100179.00
2023-06-27T13:03:48.537Z,100167.63
2023-06-27T13:08:50.218Z,100169.25
2023-06-27T13:13:51.828Z,100152.88
2023-06-27T13:18:55.249Z,100136.03
2023-06-27T13:23:57.856Z,100168.91
2023-06-27T13:28:59.541Z,100167.66
2023-06-27T13:34:01.292Z,100163.53
2023-06-27T13:39:02.969Z,100157.47
2023-06-27T13:44:04.832Z,100154.78
2023-06-27T13:49:09.443Z,100154.75
2023-06-27T13:54:11.283Z,100168.72
2023-06-27T13:59:13.618Z,100163.13
2023-06-27T14:04:15.914Z,100172.25
2023-06-27T14:09:18.327Z,100194.50
2023-06-27T14:14:23.121Z,100205.22
2023-06-27T14:19:24.782Z,100204.22
2023-06-27T14:24:26.408Z,100194.94
2023-06-27T14:29:28.341Z,100190.44
2023-06-27T14:34:30.289Z,100171.50
2023-06-27T14:39:31.981Z,100156.06
2023-06-27T14:44:34.462Z,100162.28
2023-06-27T14:49:36.416Z,100156.91
2023-06-27T14:54:38.026Z,100153.84
2023-06-27T14:59:39.657Z,100147.28
2023-06-27T15:04:41.284Z,100143.59
2023-06-27T15:09:42.948Z,100139.88
2023-06-27T15:14:50.506Z,100178.22
2023-06-27T15:19:54.151Z,100173.84
2023-06-27T15:24:55.933Z,100176.19
2023-06-27T15:29:57.734Z,100164.16
2023-06-27T15:34:59.600Z,100171.44
2023-06-27T15:40:01.376Z,100187.97
2023-06-27T15:45:03.372Z,100203.22
2023-06-27T15:50:06.282Z,100171.72
2023-06-27T15:55:08.433Z,100190.56
2023-06-27T16:00:10.450Z,100189.09
2023-06-27T16:05:16.351Z,100174.63
2023-06-27T16:10:18.089Z,100192.69
2023-06-27T16:15:19.905Z,100202.50
2023-06-27T16:20:21.984Z,100199.81
2023-06-27T16:25:23.748Z,100193.38
2023-06-27T16:30:25.637Z,100200.66
2023-06-27T16:35:28.602Z,100202.94
2023-06-27T16:40:31.347Z,100196.84
2023-06-27T16:45:34.025Z,100194.13
2023-06-27T16:50:36.804Z,100204.41
2023-06-27T16:55:38.541Z,100204.25
2023-06-27T17:00:40.300Z,100209.91
2023-06-27T17:05:42.220Z,100204.53
2023-06-27T17:10:46.020Z,100208.69
2023-06-27T17:15:49.528Z,100215.31
2023-06-27T17:20:51.509Z,100214.25
2023-06-27T17:25:53.594Z,100212.56
2023-06-27T17:30:56.512Z,100211.28
2023-06-27T17:35:58.760Z,100208.31
2023-06-27T17:41:00.654Z,100195.19
2023-06-27T17:46:02.313Z,100188.22
2023-06-27T17:51:05.696Z,100184.94
2023-06-27T17:56:07.355Z,100200.56
2023-06-27T18:01:09.040Z,100197.50
2023-06-27T18:06:10.993Z,100208.38
2023-06-27T18:11:12.647Z,100193.56
2023-06-27T18:16:14.326Z,100206.81
2023-06-27T18:21:17.022Z,100200.28
2023-06-27T18:26:18.757Z,100199.97
2023-06-27T18:31:21.035Z,100210.34
2023-06-27T18:36:22.945Z,100200.81
2023-06-27T18:41:24.566Z,100203.31
2023-06-27T18:46:26.874Z,100217.41
2023-06-27T18:51:28.552Z,100209.16
2023-06-27T18:56:30.277Z,100208.22
2023-06-27T19:01:33.114Z,100205.28
2023-06-27T19:06:34.888Z,100251.72
2023-06-27T19:11:36.793Z,100326.63
2023-06-27T19:16:38.537Z,100315.44
2023-06-27T19:21:40.941Z,100271.72
2023-06-27T19:26:42.576Z,100258.38
2023-06-27T19:31:44.437Z,100252.38
2023-06-27T19:36:46.147Z,100252.94
2023-06-27T19:41:47.827Z,100231.34
2023-06-27T19:46:49.445Z,100222.81
2023-06-27T19:51:51.545Z,100214.06
2023-06-27T19:56:53.229Z,100232.94
2023-06-27T20:01:54.852Z,100228.88
2023-06-27T20:06:56.648Z,100216.03
2023-06-27T20:11:58.323Z,100219.84
2023-06-27T20:16:59.945Z,100239.41
2023-06-27T20:22:03.557Z,100239.53
2023-06-27T20:27:07.936Z,100242.66
2023-06-27T20:32:09.594Z,100237.16
2023-06-27T20:37:11.267Z,100249.16
2023-06-27T20:42:13.491Z,100245.22
2023-06-27T20:47:17.478Z,100253.03
2023-06-27T20:52:19.149Z,100252.75
2023-06-27T20:57:21.145Z,100256.00
2023-06-27T21:02:22.986Z,100257.94
2023-06-27T21:07:24.726Z,100253.16
2023-06-27T21:12:26.381Z,100258.44
2023-06-27T21:17:28.056Z,100255.75
2023-06-27T21:22:29.632Z,100256.25
2023-06-27T21:27:46.022Z,100254.44
2023-06-27T21:32:53.008Z,100254.31
2023-06-27T21:37:55.350Z,100248.19
2023-06-27T21:42:58.147Z,100248.50
2023-06-27T21:47:59.797Z,100240.06
2023-06-27T21:53:01.575Z,100246.19
2023-06-27T21:58:03.260Z,100250.06
2023-06-27T22:03:05.194Z,100226.25
2023-06-27T22:08:07.110Z,100230.16
2023-06-27T22:13:08.795Z,100224.88
2023-06-27T22:18:10.619Z,100227.13
2023-06-27T22:23:12.267Z,100231.50
2023-06-27T22:28:13.868Z,100235.28
2023-06-27T22:33:15.589Z,100230.81
2023-06-27T22:38:18.721Z,100238.84
2023-06-27T22:43:20.316Z,100242.19
2023-06-27T22:48:21.952Z,100243.75
2023-06-27T22:53:24.962Z,100245.09
2023-06-27T22:58:26.596Z,100237.06
2023-06-27T23:03:28.228Z,100239.50
2023-06-27T23:08:30.445Z,100229.50
2023-06-27T23:13:32.080Z,100231.88
2023-06-27T23:18:35.344Z,100232.91
2023-06-27T23:23:42.927Z,100238.22
2023-06-27T23:28:49.651Z,100229.84
2023-06-27T23:33:51.387Z,100220.38
2023-06-27T23:38:53.060Z,100231.31
2023-06-27T23:43:54.684Z,100215.81
2023-06-27T23:48:56.311Z,100221.28
2023-06-27T23:53:58.500Z,100218.25
2023-06-27T23:59:00.148Z,100218.56
